createdAt,value
2023-04-30T00:00:20.670Z,79.4126
2023-04-30T00:01:21.062Z,79.3314
2023-04-30T00:02:23.099Z,79.6786
2023-04-30T00:03:31.326Z,79.5134
2023-04-30T00:04:32.160Z,79.8833
2023-04-30T00:05:33.135Z,79.7590
2023-04-30T00:06:33.809Z,80.1346
2023-04-30T00:07:34.672Z,79.6001
2023-04-30T00:08:37.104Z,79.8368
2023-04-30T00:09:36.517Z,80.0304
2023-04-30T00:10:37.077Z,80.1138
2023-04-30T00:11:37.646Z,80.3829
2023-04-30T00:12:37.934Z,80.5413
2023-04-30T00:13:38.439Z,80.5295
2023-04-30T00:14:39.051Z,80.5571
2023-04-30T00:15:39.449Z,80.5954
2023-04-30T00:16:40.135Z,80.5250
2023-04-30T00:17:40.743Z,80.6475
2023-04-30T00:18:41.577Z,80.7099
2023-04-30T00:19:42.067Z,80.6441
2023-04-30T00:20:42.539Z,80.6648
2023-04-30T00:21:43.074Z,80.8054
2023-04-30T00:22:43.640Z,81.1186
2023-04-30T00:23:44.335Z,81.3664
2023-04-30T00:24:44.832Z,81.6423
2023-04-30T00:25:45.230Z,81.6361
2023-04-30T00:26:45.742Z,81.9828
2023-04-30T00:27:46.251Z,81.7484
2023-04-30T00:28:46.664Z,81.9407
2023-04-30T00:29:47.878Z,81.7034
2023-04-30T00:30:48.843Z,81.8338
2023-04-30T00:31:49.975Z,82.0412
2023-04-30T00:32:51.146Z,81.9728
2023-04-30T00:33:51.773Z,81.8894
2023-04-30T00:34:52.434Z,82.5319
2023-04-30T00:35:55.733Z,82.5839
2023-04-30T00:37:54.616Z,82.8634
2023-04-30T00:38:55.258Z,82.9667
2023-04-30T00:39:55.829Z,83.0097
2023-04-30T00:40:56.266Z,82.7444
2023-04-30T00:41:56.876Z,82.6473
2023-04-30T00:42:57.253Z,82.7051
2023-04-30T00:43:57.864Z,82.4518
2023-04-30T00:44:59.155Z,82.8403
2023-04-30T00:46:01.310Z,82.9380
2023-04-30T00:47:03.063Z,83.2252
2023-04-30T00:48:04.656Z,83.4529
2023-04-30T00:49:04.937Z,83.7064
2023-04-30T00:50:05.393Z,83.6784
2023-04-30T00:51:06.665Z,83.5990
2023-04-30T00:52:07.002Z,83.5827
2023-04-30T00:53:08.178Z,83.7307
2023-04-30T00:54:09.801Z,83.9711
2023-04-30T00:56:10.930Z,83.9112
2023-04-30T00:57:11.278Z,84.0494
2023-04-30T00:58:12.964Z,83.8951
2023-04-30T01:00:13.936Z,84.0072
2023-04-30T01:01:14.309Z,84.2107
2023-04-30T01:02:15.626Z,84.0147
2023-04-30T01:06:19.466Z,84.0009
2023-04-30T01:08:20.378Z,83.5511
2023-04-30T01:09:20.477Z,83.4886
2023-04-30T01:11:21.382Z,83.9633
2023-04-30T01:12:21.528Z,84.1232
2023-04-30T01:13:21.965Z,83.7982
2023-04-30T01:14:23.966Z,83.8077
2023-04-30T01:21:32.355Z,82.9717
2023-04-30T01:22:34.410Z,83.0730
2023-04-30T01:23:36.173Z,82.9988
2023-04-30T01:24:36.190Z,83.1271
2023-04-30T01:25:37.518Z,83.2283
2023-04-30T01:30:44.009Z,83.3418
2023-04-30T01:31:45.865Z,83.0467
2023-04-30T01:32:46.810Z,83.2722
2023-04-30T01:33:47.628Z,83.4083
2023-04-30T01:34:49.058Z,83.3246
2023-04-30T01:35:49.427Z,83.5732
2023-04-30T01:36:49.661Z,83.3332
2023-04-30T01:37:51.590Z,83.5185
2023-04-30T01:38:53.700Z,83.4741
2023-04-30T01:39:55.480Z,83.2113
2023-04-30T01:40:56.500Z,83.2059
2023-04-30T01:41:58.491Z,83.4527
2023-04-30T01:46:00.958Z,82.9722
2023-04-30T01:47:01.614Z,82.9315
2023-04-30T01:48:02.032Z,82.8672
2023-04-30T01:49:02.010Z,82.7792
2023-04-30T01:50:03.041Z,82.6040
2023-04-30T01:51:04.790Z,82.8702
2023-04-30T01:52:06.193Z,82.8021
2023-04-30T01:53:06.769Z,83.0584
2023-04-30T01:54:07.374Z,82.9296
2023-04-30T01:55:08.575Z,82.7980
2023-04-30T01:57:10.834Z,83.0835
2023-04-30T01:58:11.165Z,82.9877
2023-04-30T02:01:13.907Z,83.2843
2023-04-30T02:02:14.199Z,83.4610
2023-04-30T02:03:15.578Z,83.2447
2023-04-30T02:04:15.953Z,83.2163
2023-04-30T02:05:16.452Z,83.4094
2023-04-30T02:06:16.782Z,83.4273
2023-04-30T02:07:17.623Z,83.2943
2023-04-30T02:08:18.123Z,83.3448
2023-04-30T02:09:18.610Z,83.4162
2023-04-30T02:10:19.530Z,83.5844
2023-04-30T02:11:20.001Z,83.6905
2023-04-30T02:12:20.568Z,83.8004
2023-04-30T02:13:21.333Z,83.8288
2023-04-30T02:14:22.590Z,83.8960
2023-04-30T02:15:23.172Z,83.5756
2023-04-30T02:16:24.090Z,83.5481
2023-04-30T02:17:24.661Z,83.6293
2023-04-30T02:18:25.868Z,83.4432
2023-04-30T02:19:26.436Z,83.2521
2023-04-30T02:20:26.881Z,83.5722
2023-04-30T02:21:27.019Z,83.4127
2023-04-30T02:22:28.643Z,83.5325
2023-04-30T02:24:29.554Z,83.5518
2023-04-30T02:25:29.594Z,83.5652
2023-04-30T02:26:30.322Z,83.6318
2023-04-30T02:27:30.871Z,83.8008
2023-04-30T02:28:31.640Z,83.8350
2023-04-30T02:29:32.873Z,83.5509
2023-04-30T02:30:33.522Z,83.5953
2023-04-30T02:31:34.334Z,83.5689
2023-04-30T02:32:35.398Z,83.4947
2023-04-30T02:33:35.997Z,83.6681
2023-04-30T02:34:36.519Z,83.4334
2023-04-30T02:35:37.168Z,83.6285
2023-04-30T02:36:37.464Z,83.7280
2023-04-30T02:37:38.035Z,83.6762
2023-04-30T02:38:38.352Z,83.5861
2023-04-30T02:39:38.945Z,83.5488
2023-04-30T02:40:39.196Z,83.2801
2023-04-30T02:41:39.566Z,83.3903
2023-04-30T02:42:40.195Z,83.6239
2023-04-30T02:43:40.687Z,83.7684
2023-04-30T02:44:41.039Z,83.7282
2023-04-30T02:45:41.772Z,83.8148
2023-04-30T02:46:42.650Z,83.8899
2023-04-30T02:47:43.331Z,83.8347
2023-04-30T02:48:43.982Z,83.7512
2023-04-30T02:49:44.428Z,83.8139
2023-04-30T02:50:45.645Z,83.6957
2023-04-30T02:51:46.366Z,83.7558
2023-04-30T02:52:46.682Z,83.5898
2023-04-30T02:53:47.233Z,83.8171
2023-04-30T02:54:47.800Z,83.9137
2023-04-30T02:55:48.284Z,83.9797
2023-04-30T02:56:48.892Z,83.7537
2023-04-30T02:57:49.355Z,83.9254
2023-04-30T02:58:49.882Z,83.9712
2023-04-30T02:59:50.462Z,83.4922
2023-04-30T03:00:50.892Z,83.6003
2023-04-30T03:01:51.984Z,83.6426
2023-04-30T03:02:53.083Z,83.4702
2023-04-30T03:03:54.160Z,82.9343
2023-04-30T03:04:54.718Z,83.4607
2023-04-30T03:05:55.466Z,83.5020
2023-04-30T03:06:56.072Z,83.4211
2023-04-30T03:07:56.659Z,83.2723
2023-04-30T03:08:57.274Z,83.0301
2023-04-30T03:09:57.629Z,83.4708
2023-04-30T03:10:58.125Z,83.0611
2023-04-30T03:11:58.596Z,83.2522
2023-04-30T03:12:59.166Z,82.8399
2023-04-30T03:13:59.719Z,82.9015
2023-04-30T03:15:00.148Z,83.0013
2023-04-30T03:16:00.798Z,83.1898
2023-04-30T03:17:01.552Z,82.7865
2023-04-30T03:18:01.634Z,82.6680
2023-04-30T03:19:02.204Z,82.7424
2023-04-30T03:20:03.087Z,82.8002
2023-04-30T03:21:03.716Z,83.0262
2023-04-30T03:22:04.277Z,83.2784
2023-04-30T03:23:04.647Z,82.9597
2023-04-30T03:24:05.248Z,82.9835
2023-04-30T03:25:05.689Z,82.7323
2023-04-30T03:26:06.164Z,82.9980
2023-04-30T03:27:06.921Z,83.0644
2023-04-30T03:28:07.810Z,83.3371
2023-04-30T03:29:08.464Z,83.0714
2023-04-30T03:30:09.582Z,83.1131
2023-04-30T03:31:10.137Z,82.7209
2023-04-30T03:32:11.060Z,83.0323
2023-04-30T03:33:12.025Z,82.8226
2023-04-30T03:34:12.881Z,82.6709
2023-04-30T03:35:13.386Z,82.7168
2023-04-30T03:36:13.871Z,82.8463
2023-04-30T03:37:14.421Z,82.8869
2023-04-30T03:38:15.075Z,82.9896
2023-04-30T03:39:15.542Z,82.8671
2023-04-30T03:40:16.170Z,82.8818
2023-04-30T03:41:16.754Z,82.8981
2023-04-30T03:42:17.241Z,82.5852
2023-04-30T03:43:17.424Z,82.7817
2023-04-30T03:44:18.160Z,82.9547
2023-04-30T03:45:18.521Z,83.2177
2023-04-30T03:46:18.555Z,83.0631
2023-04-30T03:47:19.633Z,82.9407
2023-04-30T03:48:20.743Z,82.1254
2023-04-30T03:49:21.311Z,82.3945
2023-04-30T03:50:21.697Z,82.6380
2023-04-30T03:51:22.240Z,82.8188
2023-04-30T03:52:23.074Z,82.7627
2023-04-30T03:53:23.500Z,82.8213
2023-04-30T03:54:24.043Z,83.0861
2023-04-30T03:55:24.587Z,83.3596
2023-04-30T03:56:25.031Z,83.1623
2023-04-30T03:57:25.703Z,82.9931
2023-04-30T03:58:26.038Z,83.2707
2023-04-30T03:59:26.605Z,83.3691
2023-04-30T04:00:27.568Z,83.2210
2023-04-30T04:01:28.035Z,83.1007
2023-04-30T04:02:29.283Z,82.7127
2023-04-30T04:03:30.225Z,82.9634
2023-04-30T04:04:31.340Z,82.9969
2023-04-30T04:05:31.864Z,82.9280
2023-04-30T04:06:33.068Z,83.3305
2023-04-30T04:07:33.545Z,83.2785
2023-04-30T04:08:34.081Z,83.0557
2023-04-30T04:09:34.637Z,83.1699
2023-04-30T04:10:35.087Z,83.4667
2023-04-30T04:11:35.731Z,83.4053
2023-04-30T04:12:36.256Z,82.9617
2023-04-30T04:13:36.827Z,82.8072
2023-04-30T04:14:37.399Z,83.2370
2023-04-30T04:15:37.845Z,83.3112
2023-04-30T04:16:39.164Z,82.9447
2023-04-30T04:17:40.072Z,83.1303
2023-04-30T04:18:40.648Z,83.1995
2023-04-30T04:19:41.307Z,83.1635
2023-04-30T04:20:42.407Z,82.7759
2023-04-30T04:21:42.790Z,83.1294
2023-04-30T04:22:43.402Z,83.4284
2023-04-30T04:23:43.977Z,83.6340
2023-04-30T04:24:44.320Z,83.6676
2023-04-30T04:25:44.938Z,83.5777
2023-04-30T04:26:47.881Z,83.6640
2023-04-30T04:27:46.322Z,83.7801
2023-04-30T04:28:46.949Z,83.6235
2023-04-30T04:29:47.485Z,83.6398
2023-04-30T04:30:48.058Z,83.7980
2023-04-30T04:31:48.878Z,83.5080
2023-04-30T04:32:49.569Z,83.1795
2023-04-30T04:33:50.254Z,82.9743
2023-04-30T04:34:50.955Z,83.1867
2023-04-30T04:35:51.478Z,83.5399
2023-04-30T04:36:52.098Z,83.6402
2023-04-30T04:37:52.685Z,83.2869
2023-04-30T04:38:53.320Z,83.3171
2023-04-30T04:39:54.495Z,83.4095
2023-04-30T04:40:55.050Z,83.4697
2023-04-30T04:41:55.708Z,83.3299
2023-04-30T04:42:56.284Z,83.3300
2023-04-30T04:43:56.951Z,83.3088
2023-04-30T04:44:57.575Z,83.1914
2023-04-30T04:45:58.147Z,83.2975
2023-04-30T04:46:58.976Z,83.3458
2023-04-30T04:47:59.691Z,83.4174
2023-04-30T04:49:00.126Z,83.5775
2023-04-30T04:50:01.394Z,83.5006
2023-04-30T04:51:01.967Z,83.4725
2023-04-30T04:52:02.366Z,83.0957
2023-04-30T04:53:02.956Z,83.2078
2023-04-30T04:54:03.459Z,83.3500
2023-04-30T04:55:03.973Z,83.4360
2023-04-30T04:56:04.764Z,83.5248
2023-04-30T04:57:05.193Z,83.7818
2023-04-30T04:58:05.789Z,83.5546
2023-04-30T04:59:06.382Z,83.4816
2023-04-30T05:00:08.021Z,83.5893
2023-04-30T05:01:08.596Z,83.6612
2023-04-30T05:02:09.645Z,83.1639
2023-04-30T05:03:10.735Z,83.3923
2023-04-30T05:04:11.622Z,83.4326
2023-04-30T05:05:12.281Z,83.4621
2023-04-30T05:06:12.798Z,83.4313
2023-04-30T05:07:13.927Z,83.2842
2023-04-30T05:08:14.524Z,83.1920
2023-04-30T05:09:15.003Z,83.1986
2023-04-30T05:10:15.574Z,83.2532
2023-04-30T05:11:16.421Z,83.3735
2023-04-30T05:12:16.859Z,83.2040
2023-04-30T05:13:17.502Z,83.0311
2023-04-30T05:14:17.881Z,83.0216
2023-04-30T05:15:18.516Z,83.0305
2023-04-30T05:16:19.577Z,83.1372
2023-04-30T05:17:20.218Z,82.9398
2023-04-30T05:18:21.116Z,82.8196
2023-04-30T05:19:21.859Z,82.5723
2023-04-30T05:20:22.178Z,82.4760
2023-04-30T05:21:22.897Z,82.2150
2023-04-30T05:22:23.556Z,82.2393
2023-04-30T05:23:23.972Z,81.9890
2023-04-30T05:24:24.596Z,82.8929
2023-04-30T05:25:26.944Z,82.3371
2023-04-30T05:29:28.149Z,82.8343
2023-04-30T05:30:28.247Z,82.4902
2023-04-30T05:31:29.623Z,82.4679
2023-04-30T05:32:30.369Z,82.3564
2023-04-30T05:33:31.313Z,82.5154
2023-04-30T05:34:31.753Z,82.2203
2023-04-30T05:35:32.351Z,81.6832
2023-04-30T05:36:32.966Z,81.9630
2023-04-30T05:37:33.702Z,82.1371
2023-04-30T05:38:34.668Z,81.6554
2023-04-30T05:39:34.911Z,81.3319
2023-04-30T05:40:34.800Z,81.7592
2023-04-30T05:41:35.305Z,81.7087
2023-04-30T05:42:35.397Z,81.7933
2023-04-30T05:43:36.205Z,81.9902
2023-04-30T05:44:37.639Z,81.9372
2023-04-30T05:45:38.157Z,81.9374
2023-04-30T05:46:38.944Z,81.7289
2023-04-30T05:47:39.935Z,81.2854
2023-04-30T05:48:40.598Z,81.4195
2023-04-30T05:49:40.647Z,81.8175
2023-04-30T05:50:41.927Z,81.8359
2023-04-30T05:51:42.714Z,81.9415
2023-04-30T05:52:43.517Z,81.8736
2023-04-30T05:53:43.568Z,81.6913
2023-04-30T05:54:44.235Z,81.5430
2023-04-30T05:55:44.711Z,81.9894
2023-04-30T05:56:45.505Z,81.9595
2023-04-30T05:57:45.962Z,81.7746
2023-04-30T05:58:46.631Z,81.6695
2023-04-30T05:59:47.274Z,81.8124
2023-04-30T06:00:48.375Z,81.7643
2023-04-30T06:01:48.934Z,81.5610
2023-04-30T06:02:49.207Z,81.8114
2023-04-30T06:03:49.677Z,81.7223
2023-04-30T06:04:50.429Z,81.5462
2023-04-30T06:05:51.433Z,81.5182
2023-04-30T06:06:51.727Z,81.7346
2023-04-30T06:07:52.319Z,81.7845
2023-04-30T06:08:52.727Z,81.7844
2023-04-30T06:09:53.561Z,81.6313
2023-04-30T06:10:54.289Z,81.2134
2023-04-30T06:11:54.713Z,81.1668
2023-04-30T06:12:55.221Z,80.9543
2023-04-30T06:13:55.828Z,80.8495
2023-04-30T06:14:56.229Z,81.2206
2023-04-30T06:15:56.877Z,81.4566
2023-04-30T06:16:57.596Z,81.3333
2023-04-30T06:17:58.699Z,81.4986
2023-04-30T06:18:59.450Z,81.5970
2023-04-30T06:19:59.787Z,81.0011
2023-04-30T06:21:00.549Z,81.1926
2023-04-30T06:22:01.723Z,81.5216
2023-04-30T06:23:15.367Z,81.6536
2023-04-30T06:24:34.871Z,81.2543
2023-04-30T06:25:16.725Z,81.3695
2023-04-30T06:26:17.273Z,81.6522
2023-04-30T06:27:17.791Z,81.6321
2023-04-30T06:28:18.661Z,81.5242
2023-04-30T06:29:19.374Z,81.5980
2023-04-30T06:30:20.097Z,81.3359
2023-04-30T06:31:20.898Z,81.4510
2023-04-30T06:32:21.562Z,81.5504
2023-04-30T06:33:22.351Z,81.9379
2023-04-30T06:34:22.954Z,81.8627
2023-04-30T06:35:23.402Z,80.7956
2023-04-30T06:36:24.133Z,81.3250
2023-04-30T06:37:25.362Z,81.1276
2023-04-30T06:38:26.361Z,81.5036
2023-04-30T06:39:27.007Z,81.3050
2023-04-30T06:40:27.637Z,80.7900
2023-04-30T06:41:28.651Z,80.7361
2023-04-30T06:42:29.021Z,80.5487
2023-04-30T06:43:29.723Z,80.5074
2023-04-30T06:44:29.810Z,80.3314
2023-04-30T06:45:30.376Z,80.6041
2023-04-30T06:46:31.582Z,80.9150
2023-04-30T06:47:31.449Z,80.5477
2023-04-30T06:48:32.508Z,80.5157
2023-04-30T06:49:33.121Z,80.5656
2023-04-30T06:50:33.729Z,81.0601
2023-04-30T06:51:34.157Z,80.7914
2023-04-30T06:52:34.665Z,80.7425
2023-04-30T06:53:35.212Z,80.9617
2023-04-30T06:54:35.568Z,80.4822
2023-04-30T06:55:36.164Z,80.0228
2023-04-30T06:56:37.086Z,80.2108
2023-04-30T06:57:37.672Z,80.0942
2023-04-30T06:58:38.216Z,80.0357
2023-04-30T06:59:38.682Z,80.1243
2023-04-30T07:00:39.217Z,80.4249
2023-04-30T07:01:39.939Z,79.9528
2023-04-30T07:02:40.172Z,79.9107
2023-04-30T07:03:41.003Z,80.1563
2023-04-30T07:04:42.224Z,79.6780
2023-04-30T07:05:42.662Z,79.9977
2023-04-30T07:06:43.646Z,79.9357
2023-04-30T07:07:44.123Z,80.0736
2023-04-30T07:08:45.728Z,80.2684
2023-04-30T07:09:46.304Z,79.4209
2023-04-30T07:10:46.834Z,79.5211
2023-04-30T07:11:47.446Z,79.4002
2023-04-30T07:12:48.030Z,79.2994
2023-04-30T07:13:48.434Z,79.5633
2023-04-30T07:14:49.098Z,79.4752
2023-04-30T07:15:49.551Z,79.5756
2023-04-30T07:16:50.279Z,79.1623
2023-04-30T07:17:50.892Z,79.1220
2023-04-30T07:18:51.481Z,78.7389
2023-04-30T07:19:52.300Z,78.5056
2023-04-30T07:20:53.561Z,78.3753
2023-04-30T07:21:54.638Z,78.4718
2023-04-30T07:22:55.229Z,77.9537
2023-04-30T07:23:55.564Z,77.9196
2023-04-30T07:24:56.038Z,77.9778
2023-04-30T07:25:56.671Z,77.4722
2023-04-30T07:26:57.104Z,76.7999
2023-04-30T07:27:57.664Z,76.6949
2023-04-30T07:28:58.216Z,77.2723
2023-04-30T07:29:58.694Z,77.6103
2023-04-30T07:30:59.078Z,77.4849
2023-04-30T07:31:59.704Z,77.4661
2023-04-30T07:33:00.536Z,77.2508
2023-04-30T07:34:01.280Z,77.7848
2023-04-30T07:35:01.641Z,77.2350
2023-04-30T07:36:02.183Z,77.3921
2023-04-30T07:37:02.765Z,77.6392
2023-04-30T07:38:03.341Z,77.9231
2023-04-30T07:39:03.851Z,77.6981
2023-04-30T07:40:04.809Z,77.9044
2023-04-30T07:41:05.186Z,77.7603
2023-04-30T07:42:05.815Z,77.9538
2023-04-30T07:43:06.290Z,78.2219
2023-04-30T07:44:06.876Z,77.6924
2023-04-30T07:45:07.446Z,78.1144
2023-04-30T07:46:07.983Z,78.0005
2023-04-30T07:47:09.005Z,77.7168
2023-04-30T07:48:09.921Z,77.5686
2023-04-30T07:49:10.841Z,77.2133
2023-04-30T07:50:11.420Z,77.0899
2023-04-30T07:51:12.096Z,77.3848
2023-04-30T07:52:12.843Z,76.7967
2023-04-30T07:53:13.479Z,76.7841
2023-04-30T07:54:14.364Z,76.5941
2023-04-30T07:55:14.929Z,76.4652
2023-04-30T07:56:15.510Z,76.6469
2023-04-30T07:57:15.994Z,76.9441
2023-04-30T07:58:16.521Z,76.9476
2023-04-30T07:59:17.077Z,75.9766
2023-04-30T08:00:17.767Z,76.2971
2023-04-30T08:01:18.460Z,75.9580
2023-04-30T08:02:19.229Z,76.3630
2023-04-30T08:03:20.226Z,76.4239
2023-04-30T08:04:20.530Z,75.9713
2023-04-30T08:05:21.431Z,75.8681
2023-04-30T08:06:22.115Z,75.6682
2023-04-30T08:07:22.847Z,75.3916
2023-04-30T08:08:23.422Z,75.0599
2023-04-30T08:09:24.337Z,75.9950
2023-04-30T08:10:25.210Z,75.8910
2023-04-30T08:11:25.802Z,76.0472
2023-04-30T08:12:26.378Z,75.4295
2023-04-30T08:13:26.812Z,75.6179
2023-04-30T08:14:27.398Z,75.6654
2023-04-30T08:15:28.863Z,75.9481
2023-04-30T08:16:28.733Z,75.2831
2023-04-30T08:17:29.907Z,75.9094
2023-04-30T08:18:30.532Z,75.1588
2023-04-30T08:19:31.190Z,75.3996
2023-04-30T08:20:32.170Z,75.2994
2023-04-30T08:21:32.570Z,75.5179
2023-04-30T08:22:33.193Z,75.5777
2023-04-30T08:23:33.846Z,75.2517
2023-04-30T08:24:34.485Z,75.5758
2023-04-30T08:25:35.237Z,75.3279
2023-04-30T08:26:35.550Z,75.0360
2023-04-30T08:27:36.172Z,75.1875
2023-04-30T08:28:36.868Z,74.2523
2023-04-30T08:29:37.251Z,74.0719
2023-04-30T08:30:37.955Z,74.0417
2023-04-30T08:31:38.668Z,74.7397
2023-04-30T08:32:39.843Z,74.3464
2023-04-30T08:33:39.925Z,74.4170
2023-04-30T08:34:40.445Z,75.3444
2023-04-30T08:35:40.545Z,75.3968
2023-04-30T08:36:41.016Z,74.9010
2023-04-30T08:37:41.682Z,74.8969
2023-04-30T08:38:42.373Z,74.0974
2023-04-30T08:39:42.783Z,73.6081
2023-04-30T08:40:51.428Z,74.8025
2023-04-30T08:41:44.574Z,74.5113
2023-04-30T08:42:45.165Z,74.9624
2023-04-30T08:43:46.387Z,74.5520
2023-04-30T08:44:47.491Z,74.7478
2023-04-30T08:45:48.297Z,74.1542
2023-04-30T08:46:48.865Z,73.9988
2023-04-30T08:47:49.118Z,74.3674
2023-04-30T08:49:50.040Z,74.0366
2023-04-30T08:50:50.728Z,73.8126
2023-04-30T08:51:51.391Z,74.0679
2023-04-30T08:52:52.168Z,73.3182
2023-04-30T08:53:53.101Z,74.0456
2023-04-30T08:54:53.606Z,73.6948
2023-04-30T08:55:54.281Z,74.1214
2023-04-30T08:56:54.856Z,74.3861
2023-04-30T08:57:55.254Z,74.3845
2023-04-30T08:58:56.085Z,74.2942
2023-04-30T08:59:56.751Z,74.4190
2023-04-30T09:00:56.958Z,74.7963
2023-04-30T09:01:58.066Z,74.7391
2023-04-30T09:02:59.182Z,74.6309
2023-04-30T09:03:59.588Z,75.2340
2023-04-30T09:05:00.844Z,74.5791
2023-04-30T09:06:01.411Z,73.9101
2023-04-30T09:07:04.453Z,74.6261
2023-04-30T09:08:06.417Z,74.5859
2023-04-30T09:09:07.338Z,74.6488
2023-04-30T09:10:07.836Z,74.3941
2023-04-30T09:11:08.624Z,74.3685
2023-04-30T09:12:09.003Z,74.7280
2023-04-30T09:13:09.649Z,74.2144
2023-04-30T09:14:10.551Z,74.5040
2023-04-30T09:15:11.161Z,74.3531
2023-04-30T09:16:11.856Z,74.1928
2023-04-30T09:17:11.853Z,74.0437
2023-04-30T09:18:12.661Z,73.7906
2023-04-30T09:20:12.982Z,73.8024
2023-04-30T09:21:13.668Z,73.8084
2023-04-30T09:22:14.547Z,74.2304
2023-04-30T09:23:15.036Z,73.6540
2023-04-30T09:24:18.623Z,73.5086
2023-04-30T09:25:37.731Z,73.2733
2023-04-30T09:26:17.031Z,73.6199
2023-04-30T09:27:18.141Z,73.3950
2023-04-30T09:28:19.657Z,73.7566
2023-04-30T09:29:24.884Z,74.1323
2023-04-30T09:30:20.308Z,73.2183
2023-04-30T09:31:21.599Z,72.3817
2023-04-30T09:32:22.246Z,72.2780
2023-04-30T09:33:22.399Z,72.4265
2023-04-30T09:34:23.285Z,72.3218
2023-04-30T09:35:25.003Z,72.2336
2023-04-30T09:36:25.702Z,72.5519
2023-04-30T09:37:27.151Z,72.3282
2023-04-30T09:39:28.076Z,72.5997
2023-04-30T09:40:28.264Z,72.6260
2023-04-30T09:41:28.661Z,71.9785
2023-04-30T09:42:29.287Z,72.1421
2023-04-30T09:43:30.262Z,71.2720
2023-04-30T09:44:30.674Z,71.0374
2023-04-30T09:45:32.705Z,70.9994
2023-04-30T09:46:32.487Z,69.2323
2023-04-30T09:47:33.390Z,70.6213
2023-04-30T09:50:35.006Z,70.0446
2023-04-30T09:51:35.570Z,69.8204
2023-04-30T09:52:36.507Z,69.6585
2023-04-30T09:53:37.134Z,69.3810
2023-04-30T09:54:37.965Z,69.4063
2023-04-30T09:55:37.926Z,70.0972
2023-04-30T09:56:38.010Z,69.4540
2023-04-30T09:57:38.084Z,69.9814
2023-04-30T09:58:39.444Z,70.0932
2023-04-30T09:59:39.027Z,70.1829
2023-04-30T10:00:40.154Z,69.6769
2023-04-30T10:01:41.641Z,70.0939
2023-04-30T10:02:43.014Z,69.9120
2023-04-30T10:04:43.007Z,69.4862
2023-04-30T10:05:44.337Z,69.4521
2023-04-30T10:06:58.876Z,69.7701
2023-04-30T10:07:59.117Z,69.2872
2023-04-30T10:09:00.707Z,69.1522
2023-04-30T10:10:00.837Z,69.0948
2023-04-30T10:11:01.502Z,68.5799
2023-04-30T10:12:01.966Z,69.3409
2023-04-30T10:13:02.708Z,69.0701
2023-04-30T10:14:03.020Z,68.3529
2023-04-30T10:15:03.886Z,67.9006
2023-04-30T10:16:04.503Z,68.1339
2023-04-30T10:17:05.241Z,67.8167
2023-04-30T10:18:06.333Z,68.0108
2023-04-30T10:19:07.266Z,67.5608
2023-04-30T10:20:08.512Z,67.9776
2023-04-30T10:21:09.301Z,67.4564
2023-04-30T10:22:09.885Z,66.7620
2023-04-30T10:23:10.244Z,66.2816
2023-04-30T10:24:10.940Z,65.7085
2023-04-30T10:25:11.690Z,65.7725
2023-04-30T10:26:12.233Z,65.1559
2023-04-30T10:27:13.833Z,64.3245
2023-04-30T10:28:13.429Z,64.3658
2023-04-30T10:29:14.621Z,64.1133
2023-04-30T10:30:15.165Z,63.8973
2023-04-30T10:31:15.653Z,62.6077
2023-04-30T10:32:16.821Z,63.5281
2023-04-30T10:33:18.700Z,63.2800
2023-04-30T10:34:18.707Z,63.4365
2023-04-30T10:35:19.089Z,63.9613
2023-04-30T10:36:19.751Z,63.3973
2023-04-30T10:37:20.179Z,64.7041
2023-04-30T10:38:20.701Z,63.4323
2023-04-30T10:39:37.153Z,63.9002
2023-04-30T10:40:37.263Z,63.9122
2023-04-30T10:41:37.770Z,63.2760
2023-04-30T10:42:38.425Z,61.9511
2023-04-30T10:43:40.196Z,62.7161
2023-04-30T10:44:39.162Z,63.0162
2023-04-30T10:45:40.401Z,62.9999
2023-04-30T10:46:41.721Z,62.4398
2023-04-30T10:47:42.122Z,62.2610
2023-04-30T10:48:43.114Z,61.7942
2023-04-30T10:49:43.750Z,61.8542
2023-04-30T10:50:46.173Z,61.1241
2023-04-30T10:51:45.702Z,59.6923
2023-04-30T10:53:01.867Z,61.1184
2023-04-30T10:53:47.796Z,61.0984
2023-04-30T10:54:48.506Z,61.5429
2023-04-30T10:55:49.794Z,59.8022
2023-04-30T10:56:48.714Z,60.9014
2023-04-30T10:57:49.384Z,60.8490
2023-04-30T10:58:50.039Z,60.7101
2023-04-30T10:59:50.468Z,60.6819
2023-04-30T11:00:51.648Z,61.0335
2023-04-30T11:01:52.698Z,60.8837
2023-04-30T11:02:53.740Z,61.0009
2023-04-30T11:03:54.595Z,60.8187
2023-04-30T11:04:55.594Z,60.9373
2023-04-30T11:05:56.422Z,60.1690
2023-04-30T11:06:57.527Z,60.5398
2023-04-30T11:07:58.188Z,60.9803
2023-04-30T11:08:59.188Z,61.0943
2023-04-30T11:09:59.458Z,61.9135
2023-04-30T11:11:00.159Z,61.0572
2023-04-30T11:12:01.126Z,60.8635
2023-04-30T11:13:03.651Z,60.7238
2023-04-30T11:14:04.101Z,58.9837
2023-04-30T11:15:04.810Z,59.5444
2023-04-30T11:16:05.155Z,58.8245
2023-04-30T11:17:05.411Z,59.6266
2023-04-30T11:18:05.799Z,59.6249
2023-04-30T11:19:06.195Z,59.0818
2023-04-30T11:20:06.995Z,59.6055
2023-04-30T11:21:07.429Z,57.7536
2023-04-30T11:22:08.063Z,58.4463
2023-04-30T11:23:08.725Z,58.7120
2023-04-30T11:24:10.239Z,58.9844
2023-04-30T11:25:11.025Z,57.8740
2023-04-30T11:26:11.941Z,57.5710
2023-04-30T11:27:12.876Z,57.4297
2023-04-30T11:28:14.265Z,57.6614
2023-04-30T11:29:15.554Z,58.3625
2023-04-30T11:30:15.364Z,57.9950
2023-04-30T11:31:15.757Z,58.3465
2023-04-30T11:32:16.103Z,57.6908
2023-04-30T11:33:17.179Z,57.2198
2023-04-30T11:34:17.871Z,58.5326
2023-04-30T11:35:18.750Z,58.3356
2023-04-30T11:36:19.245Z,57.9156
2023-04-30T11:37:20.498Z,57.5666
2023-04-30T11:38:21.530Z,57.3619
2023-04-30T11:39:22.541Z,56.7856
2023-04-30T11:40:23.506Z,57.2096
2023-04-30T11:41:24.054Z,57.2885
2023-04-30T11:42:24.784Z,54.3965
2023-04-30T11:43:25.671Z,55.5592
2023-04-30T11:44:26.152Z,56.4489
2023-04-30T11:45:26.832Z,56.5248
2023-04-30T11:46:27.462Z,56.6048
2023-04-30T11:47:28.322Z,57.0390
2023-04-30T11:48:30.146Z,57.1659
2023-04-30T11:49:29.511Z,57.4740
2023-04-30T11:50:29.896Z,57.3279
2023-04-30T11:51:30.230Z,58.4457
2023-04-30T11:52:30.636Z,58.4396
2023-04-30T11:53:31.404Z,58.2379
2023-04-30T11:54:31.924Z,58.1496
2023-04-30T11:55:32.686Z,57.9049
2023-04-30T11:56:33.780Z,58.2930
2023-04-30T11:57:34.309Z,57.4503
2023-04-30T11:58:35.028Z,57.1237
2023-04-30T11:59:35.741Z,56.8712
2023-04-30T12:00:36.573Z,57.7455
2023-04-30T12:01:37.280Z,58.2914
2023-04-30T12:02:38.371Z,58.7972
2023-04-30T12:03:39.436Z,58.3441
2023-04-30T12:04:40.802Z,58.0307
2023-04-30T12:05:41.363Z,58.8381
2023-04-30T12:06:42.218Z,58.5552
2023-04-30T12:07:42.732Z,58.7500
2023-04-30T12:08:43.445Z,58.2376
2023-04-30T12:09:44.222Z,58.6669
2023-04-30T12:10:45.206Z,59.7218
2023-04-30T12:11:45.835Z,59.2799
2023-04-30T12:12:46.752Z,60.0040
2023-04-30T12:13:47.338Z,59.3448
2023-04-30T12:14:47.990Z,59.1481
2023-04-30T12:15:49.473Z,59.4439
2023-04-30T12:16:50.479Z,58.8461
2023-04-30T12:18:52.663Z,58.6289
2023-04-30T12:19:51.714Z,57.7454
2023-04-30T12:20:52.413Z,57.4817
2023-04-30T12:21:52.502Z,57.4755
2023-04-30T12:22:53.426Z,57.2664
2023-04-30T12:23:54.593Z,57.6539
2023-04-30T12:24:55.018Z,57.8406
2023-04-30T12:25:55.541Z,57.9568
2023-04-30T12:26:55.812Z,58.1447
2023-04-30T12:27:57.030Z,58.9399
2023-04-30T12:28:58.116Z,58.1328
2023-04-30T12:29:58.969Z,57.5577
2023-04-30T12:31:00.160Z,57.3684
2023-04-30T12:32:00.214Z,58.1052
2023-04-30T12:33:00.649Z,58.5972
2023-04-30T12:34:02.047Z,58.4361
2023-04-30T12:36:02.141Z,58.9819
2023-04-30T12:37:02.992Z,59.3030
2023-04-30T12:38:03.453Z,59.3601
2023-04-30T12:39:04.407Z,58.9475
2023-04-30T12:40:04.573Z,59.2252
2023-04-30T12:41:16.326Z,59.4428
2023-04-30T12:42:16.737Z,58.8033
2023-04-30T12:43:17.450Z,59.4102
2023-04-30T12:44:17.862Z,59.9926
2023-04-30T12:45:18.357Z,59.6085
2023-04-30T12:46:19.268Z,58.5724
2023-04-30T12:47:19.887Z,59.0397
2023-04-30T12:48:20.165Z,59.9024
2023-04-30T12:49:20.734Z,59.1937
2023-04-30T12:50:21.504Z,59.5393
2023-04-30T12:51:22.174Z,59.7928